CheckWX is a tool to help pilots better visualize weather data.  It is not intended as a substitute for an official pre-flight weather briefing.

03:02:46 UTC

KBGM TAF
Greater Binghamton / Edwin A Link Field Airport
Binghamton, New York, USA
KBGM 012332Z 0200/0224 33011KT P6SM SCT050 FM021300 34012G20KT P6SM BKN025 FM021800 33015G23KT P6SM BKN030

Apr-2@
00:00 UTC

Apr-2 @ 00:00 UTC

Apr-2@
13:00 UTC

Apr-2 @ 13:00 UTC

TAF KBGM 012332Z 0200/0224 33011KT P6SM SCT050
Wind
  • 330° at 11 KTS
Cloud Levels
  • Scattered at 5,000' AGL

Apr-2@
13:00 UTC

Apr-2 @ 13:00 UTC

Apr-2@
18:00 UTC

Apr-2 @ 18:00 UTC

FM021300 34012G20KT P6SM BKN025

From

From Standard forecast or significant change

Wind
  • 340° at 12 KTS
  • {Gusting to 20 KTS
Cloud Levels
  • Broken at 2,500' AGL

Apr-2@
18:00 UTC

Apr-2 @ 18:00 UTC

Apr-3@
00:00 UTC

Apr-3 @ 00:00 UTC

FM021800 33015G23KT P6SM BKN030

From

From Standard forecast or significant change

Wind
  • 330° at 15 KTS
  • {Gusting to 23 KTS
Cloud Levels
  • Broken at 3,000' AGL